Bethel, Utah
Current Conditions -  °F | °C
As of 10:52 AM on Friday 21 Nov 2014 (Local Time) from KMLF Reporting Station
Clear Clear  
Wind Chill: 45°   Ceiling: Unl
Heat Index: 45°   Visibility: 10mi
Dew Point: 23°   Wind: 0mph
Humidity: 42%   Direction: NA
Pressure: 30.03"   Gusts: NA
Location:  39.0932°N, 113.543°W
Report Text: KMLF 211752Z AUTO 00000KT 10SM CLR 07/M05 A3003 RMK AO2 SLP166 T00721050 10072 21039 50002 TSNO
Loading
Personal Weather Stations






























Interactive Weather Map New forecast layout! Learn more

10-Day Weather Forecast

Advertisements
Track Severe Weather on mobile